Time;durP1;ratioP1;P1;durP2;ratioP2;P2;SDS_P1;SDS_P2;PMS_P1;PMS_P2;Temp;Humidity;BMP_temperature;BMP_pressure;BME280_temperature;BME280_humidity;BME280_pressure;Samples;Min_cycle;Max_cycle;Signal;HPM_P1;HPM_P2
2023/08/06 00:00:21;;;;;;;3.55;3.25;;;14.30;99.90;;;;;;5096178;28;20493;-78
2023/08/06 00:02:46;;;;;;;3.40;2.97;;;14.10;99.90;;;;;;5095374;28;20220;-79
2023/08/06 00:05:12;;;;;;;3.75;3.00;;;14.30;99.90;;;;;;5095825;28;20126;-79
2023/08/06 00:07:38;;;;;;;3.33;3.03;;;13.90;99.90;;;;;;5095548;28;20431;-79
2023/08/06 00:10:04;;;;;;;3.40;3.00;;;13.80;99.90;;;;;;5095548;28;20051;-79
2023/08/06 00:12:30;;;;;;;4.00;2.90;;;13.90;99.90;;;;;;5087219;28;20040;-79
2023/08/06 00:14:55;;;;;;;2.80;2.40;;;13.80;99.90;;;;;;5095428;28;20294;-79
2023/08/06 00:17:21;;;;;;;2.85;2.65;;;14.20;99.90;;;;;;5095196;28;20085;-79
2023/08/06 00:19:47;;;;;;;3.30;2.90;;;13.70;99.90;;;;;;5095515;28;20039;-79
2023/08/06 00:22:12;;;;;;;2.55;2.35;;;13.70;99.90;;;;;;5094851;28;20042;-79
2023/08/06 00:24:38;;;;;;;3.38;3.08;;;13.70;99.90;;;;;;5095435;28;20039;-79
2023/08/06 00:27:07;;;;;;;2.70;2.50;;;14.30;99.90;;;;;;5094942;28;20048;-79
2023/08/06 00:29:32;;;;;;;2.45;2.25;;;13.80;99.90;;;;;;5095044;28;20031;-79
2023/08/06 00:31:58;;;;;;;2.53;2.33;;;14.30;99.90;;;;;;5095106;28;20364;-79
2023/08/06 00:34:24;;;;;;;2.63;2.42;;;14.30;99.90;;;;;;5078088;28;20069;-79
2023/08/06 00:36:49;;;;;;;2.55;2.30;;;14.30;99.90;;;;;;5094619;28;20131;-79
2023/08/06 00:39:15;;;;;;;2.55;2.30;;;13.70;99.90;;;;;;5094566;28;20043;-79
2023/08/06 00:41:41;;;;;;;2.83;2.53;;;14.20;99.90;;;;;;5094791;28;20051;-79
2023/08/06 00:44:06;;;;;;;3.00;2.70;;;14.30;99.90;;;;;;5094407;28;20042;-79
2023/08/06 00:46:33;;;;;;;3.28;2.78;;;14.20;99.90;;;;;;5078227;28;20051;-79
2023/08/06 00:48:59;;;;;;;2.70;2.35;;;13.70;99.90;;;;;;5094687;28;20097;-79
2023/08/06 00:51:26;;;;;;;2.90;2.70;;;13.90;99.90;;;;;;5094529;28;20040;-79
2023/08/06 00:53:53;;;;;;;2.63;2.38;;;14.00;99.90;;;;;;5094284;28;20040;-79
2023/08/06 00:56:19;;;;;;;2.75;2.47;;;13.70;99.90;;;;;;5077405;28;20486;-79
2023/08/06 00:58:46;;;;;;;3.85;3.10;;;13.80;99.90;;;;;;5093480;28;20043;-79
2023/08/06 01:01:11;;;;;;;4.70;3.72;;;14.10;99.90;;;;;;5093367;28;20039;-79
2023/08/06 01:03:37;;;;;;;3.13;2.83;;;14.40;99.90;;;;;;5094031;28;20538;-79
2023/08/06 01:06:03;;;;;;;3.20;2.90;;;14.30;99.90;;;;;;5094304;28;20073;-79
2023/08/06 01:08:58;;;;;;;2.88;2.55;;;14.30;99.90;;;;;;5093939;28;20122;-79
2023/08/06 01:11:36;;;;;;;2.80;2.50;;;14.10;99.90;;;;;;5090417;28;20044;-79
2023/08/06 01:14:37;;;;;;;3.45;3.15;;;14.20;99.90;;;;;;5090517;28;20031;-79
2023/08/06 01:17:04;;;;;;;2.92;2.63;;;14.30;99.90;;;;;;5076164;28;20105;-79
2023/08/06 01:19:30;;;;;;;3.30;3.00;;;13.80;99.90;;;;;;5067966;28;20040;-79
2023/08/06 01:21:55;;;;;;;3.60;2.85;;;14.00;99.90;;;;;;5073649;28;20050;-79
2023/08/06 01:24:21;;;;;;;3.83;2.70;;;14.30;99.90;;;;;;5073878;28;20089;-79
2023/08/06 01:27:05;;;;;;;3.03;2.50;;;14.00;99.90;;;;;;5073610;28;20040;-79
2023/08/06 01:29:37;;;;;;;4.20;2.97;;;13.70;99.90;;;;;;5087349;28;20340;-78
2023/08/06 01:32:05;;;;;;;3.50;2.90;;;13.70;99.90;;;;;;5090604;28;20727;-78
2023/08/06 01:34:33;;;;;;;3.72;3.33;;;14.30;99.90;;;;;;5089824;28;20044;-78
2023/08/06 01:37:00;;;;;;;3.05;2.75;;;14.10;99.90;;;;;;5089688;28;20420;-78
2023/08/06 01:39:26;;;;;;;3.95;2.70;;;14.20;99.90;;;;;;5090157;28;20044;-77
2023/08/06 01:41:52;;;;;;;4.10;3.60;;;13.70;99.90;;;;;;5090034;28;20407;-78
2023/08/06 01:44:18;;;;;;;3.72;2.80;;;13.70;99.90;;;;;;5073061;28;20046;-78
2023/08/06 01:46:44;;;;;;;3.90;3.50;;;13.90;99.90;;;;;;5089909;28;20399;-78
2023/08/06 01:49:09;;;;;;;5.82;4.07;;;13.60;99.90;;;;;;5089772;28;20036;-78
2023/08/06 01:51:35;;;;;;;5.43;4.82;;;14.20;99.90;;;;;;5090003;28;20127;-78
2023/08/06 01:54:01;;;;;;;4.82;4.43;;;13.90;99.90;;;;;;5056764;28;20043;-78
2023/08/06 01:56:26;;;;;;;4.57;4.18;;;13.90;99.90;;;;;;5073185;28;20035;-78
2023/08/06 01:58:52;;;;;;;4.68;4.10;;;14.30;99.90;;;;;;5090505;28;20042;-78
2023/08/06 02:01:18;;;;;;;4.47;4.05;;;14.20;99.90;;;;;;5088389;28;20111;-78
2023/08/06 02:03:43;;;;;;;4.93;4.43;;;14.00;99.90;;;;;;5069178;28;20472;-78
2023/08/06 02:06:09;;;;;;;4.40;4.00;;;13.90;99.90;;;;;;5089509;28;20067;-78
2023/08/06 02:08:35;;;;;;;5.00;4.47;;;13.90;99.90;;;;;;5073274;28;20033;-78
2023/08/06 02:11:01;;;;;;;5.03;4.53;;;13.80;99.90;;;;;;5073098;28;20059;-78
2023/08/06 02:13:27;;;;;;;4.10;3.70;;;13.90;99.90;;;;;;5089899;28;20063;-78
2023/08/06 02:15:53;;;;;;;4.45;3.92;;;14.30;99.90;;;;;;5089569;28;20479;-78
2023/08/06 02:18:18;;;;;;;3.65;3.35;;;14.30;99.90;;;;;;5088790;28;20032;-78
2023/08/06 02:20:58;;;;;;;3.85;3.45;;;14.30;99.90;;;;;;5072940;28;20040;-78
2023/08/06 02:23:24;;;;;;;3.85;3.50;;;13.70;99.90;;;;;;5072578;28;20048;-78
2023/08/06 02:26:03;;;;;;;4.22;3.83;;;13.80;99.90;;;;;;5088360;28;20040;-78
2023/08/06 02:28:32;;;;;;;4.20;3.80;;;13.80;99.90;;;;;;5070840;28;20617;-78
2023/08/06 02:30:58;;;;;;;4.50;4.10;;;13.90;99.90;;;;;;5072487;28;20186;-78
2023/08/06 02:33:24;;;;;;;4.90;4.40;;;14.40;99.90;;;;;;5089512;28;20556;-78
2023/08/06 02:35:50;;;;;;;4.20;3.80;;;13.70;99.90;;;;;;5091236;28;20467;-78
2023/08/06 02:38:16;;;;;;;4.85;4.35;;;13.70;99.90;;;;;;5076494;28;20040;-79
2023/08/06 02:40:46;;;;;;;4.50;4.10;;;13.80;99.90;;;;;;5094290;28;20043;-79
2023/08/06 02:43:12;;;;;;;4.72;4.05;;;13.80;99.90;;;;;;5093726;28;20051;-79
2023/08/06 02:45:38;;;;;;;4.53;4.13;;;14.00;99.90;;;;;;5093323;28;20178;-79
2023/08/06 02:48:04;;;;;;;6.35;5.47;;;14.30;99.90;;;;;;5076390;28;20123;-79
2023/08/06 02:50:29;;;;;;;4.72;4.28;;;14.40;99.90;;;;;;5076574;28;20369;-79
2023/08/06 02:52:55;;;;;;;4.68;4.28;;;14.40;99.90;;;;;;5076826;28;20051;-79
2023/08/06 02:55:21;;;;;;;3.85;3.45;;;13.80;99.90;;;;;;5076633;28;20447;-79
2023/08/06 02:57:46;;;;;;;4.32;3.92;;;14.50;99.90;;;;;;5093594;28;20393;-79
2023/08/06 03:00:12;;;;;;;4.90;4.40;;;13.80;99.90;;;;;;5093669;28;20036;-79
2023/08/06 03:02:38;;;;;;;4.30;3.90;;;14.40;99.90;;;;;;5093543;28;20051;-79
2023/08/06 03:05:04;;;;;;;4.60;3.88;;;13.90;99.90;;;;;;5093565;28;20059;-79
2023/08/06 03:07:30;;;;;;;4.10;3.70;;;14.50;99.90;;;;;;5093111;28;20040;-79
2023/08/06 03:09:55;;;;;;;4.15;3.75;;;14.50;99.90;;;;;;5093291;28;20052;-79
2023/08/06 03:12:21;;;;;;;4.40;4.00;;;14.40;99.90;;;;;;5093095;28;20043;-79
2023/08/06 03:14:47;;;;;;;4.55;4.03;;;14.50;99.90;;;;;;5076213;28;20072;-79
2023/08/06 03:17:12;;;;;;;4.20;3.80;;;13.80;99.90;;;;;;5093250;28;20036;-79
2023/08/06 03:19:38;;;;;;;4.30;3.90;;;14.20;99.90;;;;;;5092980;28;20035;-79
2023/08/06 03:22:04;;;;;;;3.45;3.15;;;14.40;99.90;;;;;;5076377;28;20462;-79
2023/08/06 03:24:29;;;;;;;4.20;3.80;;;14.00;99.90;;;;;;5092904;28;20459;-79
2023/08/06 03:26:55;;;;;;;3.95;3.55;;;14.50;99.90;;;;;;5093172;28;20075;-79
2023/08/06 03:29:22;;;;;;;3.92;3.53;;;14.00;99.90;;;;;;5092986;28;20455;-79
2023/08/06 03:31:47;;;;;;;4.75;4.35;;;13.80;99.90;;;;;;5075652;28;20415;-79
2023/08/06 03:34:13;;;;;;;5.00;4.50;;;14.00;99.90;;;;;;5092477;28;20119;-79
2023/08/06 03:36:39;;;;;;;4.53;4.10;;;14.40;99.90;;;;;;5092570;28;20043;-79
2023/08/06 03:39:04;;;;;;;4.18;3.78;;;13.90;99.90;;;;;;5075090;28;20050;-79
2023/08/06 03:41:30;;;;;;;4.13;3.72;;;14.30;99.90;;;;;;5074419;28;20055;-79
2023/08/06 03:43:56;;;;;;;3.60;3.30;;;14.30;99.90;;;;;;5090907;28;20055;-79
2023/08/06 03:46:21;;;;;;;3.35;3.05;;;13.90;99.90;;;;;;5074784;28;20040;-79
2023/08/06 03:48:47;;;;;;;2.65;2.45;;;13.70;99.90;;;;;;5091928;28;20794;-79
2023/08/06 03:51:13;;;;;;;3.10;2.80;;;14.00;99.90;;;;;;5075678;28;20036;-79
2023/08/06 03:53:38;;;;;;;3.58;2.90;;;13.80;99.90;;;;;;5092030;28;20044;-79
2023/08/06 03:56:04;;;;;;;2.80;2.58;;;14.30;99.90;;;;;;5092597;28;20040;-79
2023/08/06 03:58:30;;;;;;;2.70;2.30;;;14.30;99.90;;;;;;5091991;28;20043;-79
2023/08/06 04:00:59;;;;;;;2.55;2.35;;;14.00;99.90;;;;;;5074912;28;20036;-79
2023/08/06 04:03:25;;;;;;;2.15;1.95;;;13.90;99.90;;;;;;5074805;28;20039;-79
2023/08/06 04:05:51;;;;;;;2.42;2.20;;;14.40;99.90;;;;;;5091565;28;20471;-78
2023/08/06 04:08:16;;;;;;;2.85;2.35;;;14.30;99.90;;;;;;5074669;28;20125;-79
2023/08/06 04:10:42;;;;;;;2.25;2.05;;;14.40;99.90;;;;;;5091134;28;20093;-79
2023/08/06 04:13:08;;;;;;;2.92;2.65;;;13.80;99.90;;;;;;5075063;28;20105;-79
2023/08/06 04:15:37;;;;;;;2.13;1.92;;;13.90;99.90;;;;;;5074568;28;20043;-78
2023/08/06 04:18:02;;;;;;;2.38;2.17;;;14.40;99.90;;;;;;5074665;28;20043;-78
2023/08/06 04:20:28;;;;;;;2.95;2.60;;;14.20;99.90;;;;;;5091928;28;20044;-79
2023/08/06 04:22:55;;;;;;;2.83;2.45;;;13.90;99.90;;;;;;5091640;28;20445;-79
2023/08/06 04:25:21;;;;;;;2.80;2.47;;;13.80;99.90;;;;;;5091483;28;20107;-79
2023/08/06 04:27:47;;;;;;;2.50;2.30;;;14.00;99.90;;;;;;5091444;28;20428;-79
2023/08/06 04:30:13;;;;;;;2.67;2.47;;;14.00;99.90;;;;;;5091616;28;20039;-79
2023/08/06 04:32:40;;;;;;;2.58;2.25;;;14.50;99.90;;;;;;5090962;28;20426;-79
2023/08/06 04:35:06;;;;;;;2.50;2.30;;;14.50;99.90;;;;;;5091043;28;20036;-79
2023/08/06 04:37:31;;;;;;;;;;;13.90;99.90;;;;;;5091768;28;20039;-79
2023/08/06 04:39:57;;;;;;;3.20;2.90;;;14.40;99.90;;;;;;5089084;28;19916;-79
2023/08/06 04:42:23;;;;;;;2.60;2.40;;;13.90;99.90;;;;;;5069581;28;20731;-79
2023/08/06 04:44:49;;;;;;;2.55;2.35;;;14.50;99.90;;;;;;5057309;28;20154;-79
2023/08/06 04:47:15;;;;;;;2.30;2.10;;;13.90;99.90;;;;;;5089958;28;20097;-79
2023/08/06 04:49:40;;;;;;;2.10;1.90;;;14.10;99.90;;;;;;5073624;28;20032;-79
2023/08/06 04:52:06;;;;;;;2.55;2.35;;;14.50;99.90;;;;;;5090147;28;20035;-79
2023/08/06 04:54:32;;;;;;;2.83;2.17;;;14.10;99.90;;;;;;5090105;28;20036;-79
2023/08/06 04:56:57;;;;;;;2.53;2.15;;;14.00;99.90;;;;;;5078078;28;20154;-79
2023/08/06 04:59:23;;;;;;;2.58;2.13;;;14.10;99.90;;;;;;5073147;28;20047;-78
2023/08/06 05:01:49;;;;;;;3.58;2.42;;;13.90;99.90;;;;;;5090058;28;20043;-78
2023/08/06 05:04:14;;;;;;;2.90;2.60;;;13.90;99.90;;;;;;5089625;28;20039;-78
2023/08/06 05:06:41;;;;;;;2.40;2.20;;;14.10;99.90;;;;;;5089919;28;20036;-78
2023/08/06 05:09:07;;;;;;;2.95;2.42;;;14.00;99.90;;;;;;5090440;28;20363;-78
2023/08/06 05:11:32;;;;;;;2.60;2.40;;;14.10;99.90;;;;;;5089314;28;20082;-78
2023/08/06 05:13:58;;;;;;;2.65;2.45;;;14.40;99.90;;;;;;5071458;28;20090;-78
2023/08/06 05:16:24;;;;;;;2.83;2.25;;;14.30;99.90;;;;;;5088451;28;20092;-78
2023/08/06 05:18:50;;;;;;;2.60;2.40;;;13.90;99.90;;;;;;5088753;28;20173;-78
2023/08/06 05:21:16;;;;;;;2.72;2.30;;;13.80;99.90;;;;;;5088305;28;20036;-78
2023/08/06 05:23:42;;;;;;;;;;;14.00;99.90;;;;;;5089270;28;20483;-78
2023/08/06 05:26:07;;;;;;;2.53;2.20;;;13.80;99.90;;;;;;5088523;28;19922;-78
2023/08/06 05:28:34;;;;;;;2.78;2.58;;;14.30;99.90;;;;;;5088347;28;20047;-78
2023/08/06 05:31:03;;;;;;;3.67;2.55;;;13.80;99.90;;;;;;5071650;28;20072;-78
2023/08/06 05:33:29;;;;;;;2.67;2.47;;;13.80;99.90;;;;;;5087124;28;20050;-78
2023/08/06 05:35:54;;;;;;;2.92;2.63;;;14.00;99.90;;;;;;5071339;28;20036;-78
2023/08/06 05:38:20;;;;;;;2.30;2.10;;;14.40;99.90;;;;;;5088162;28;20048;-78
2023/08/06 05:40:46;;;;;;;2.55;2.33;;;14.00;99.90;;;;;;5071431;28;20044;-78
2023/08/06 05:43:11;;;;;;;2.90;2.60;;;14.30;99.90;;;;;;5071245;28;20044;-78
2023/08/06 05:45:37;;;;;;;2.50;2.30;;;14.10;99.90;;;;;;5088294;28;20043;-78
2023/08/06 05:48:03;;;;;;;2.35;2.15;;;14.00;99.90;;;;;;5087923;28;20032;-78
2023/08/06 05:50:28;;;;;;;2.15;1.95;;;14.10;99.90;;;;;;5088068;28;20085;-78
2023/08/06 05:52:54;;;;;;;2.28;2.05;;;14.70;99.90;;;;;;5068606;28;20459;-79
2023/08/06 05:55:20;;;;;;;3.35;2.22;;;14.20;99.90;;;;;;5083913;28;20101;-79
2023/08/06 05:57:46;;;;;;;2.20;2.00;;;14.90;99.90;;;;;;5068832;28;20040;-79
2023/08/06 06:00:12;;;;;;;2.53;2.03;;;14.50;99.90;;;;;;5087504;28;20367;-79
2023/08/06 06:02:37;;;;;;;2.92;2.65;;;15.10;99.90;;;;;;5053563;28;20067;-79
2023/08/06 06:05:03;;;;;;;2.60;2.40;;;15.20;99.90;;;;;;5088196;28;20493;-79
2023/08/06 06:07:29;;;;;;;2.35;2.15;;;14.80;99.90;;;;;;5088185;28;20040;-79
2023/08/06 06:09:54;;;;;;;2.75;2.47;;;14.90;99.90;;;;;;5092928;28;20075;-79
2023/08/06 06:12:22;;;;;;;3.05;2.60;;;14.80;99.90;;;;;;5094805;28;20043;-78
2023/08/06 06:14:48;;;;;;;2.97;2.67;;;15.40;99.90;;;;;;5077824;28;20036;-78
2023/08/06 06:17:13;;;;;;;2.72;2.53;;;14.90;99.90;;;;;;5095027;28;20113;-78
2023/08/06 06:19:39;;;;;;;3.03;2.72;;;15.20;99.90;;;;;;5094663;28;20490;-75
2023/08/06 06:22:04;;;;;;;2.90;2.55;;;15.60;99.90;;;;;;5094863;28;20040;-78
2023/08/06 06:24:30;;;;;;;3.10;2.80;;;15.40;99.90;;;;;;5095080;28;20040;-79
2023/08/06 06:26:56;;;;;;;3.10;2.80;;;15.40;99.90;;;;;;5095619;28;20531;-78
2023/08/06 06:29:21;;;;;;;2.95;2.65;;;15.20;99.90;;;;;;5077584;28;20043;-78
2023/08/06 06:31:47;;;;;;;3.25;2.95;;;15.60;99.90;;;;;;5094951;28;20038;-78
2023/08/06 06:34:13;;;;;;;3.72;2.78;;;15.60;99.90;;;;;;5095028;28;20081;-78
2023/08/06 06:36:39;;;;;;;3.45;2.97;;;15.50;99.90;;;;;;5096101;28;20115;-78
2023/08/06 06:39:04;;;;;;;3.33;2.50;;;15.80;99.90;;;;;;5089031;27;20040;-78
2023/08/06 06:41:32;;;;;;;2.97;2.67;;;15.70;99.90;;;;;;5093748;28;20039;-78
2023/08/06 06:43:58;;;;;;;3.10;2.80;;;16.00;99.90;;;;;;5078818;28;20111;-78
2023/08/06 06:46:24;;;;;;;3.05;2.75;;;16.20;99.90;;;;;;5090966;28;20123;-78
2023/08/06 06:48:50;;;;;;;3.40;3.10;;;15.80;99.90;;;;;;5077048;28;20079;-78
2023/08/06 06:51:15;;;;;;;4.25;3.28;;;16.00;99.90;;;;;;5092652;28;20521;-78
2023/08/06 06:53:41;;;;;;;4.05;3.65;;;15.80;99.90;;;;;;5078365;28;20085;-78
2023/08/06 06:56:07;;;;;;;;;;;16.00;99.90;;;;;;5092855;28;20521;-78
2023/08/06 06:58:33;;;;;;;4.10;3.70;;;16.00;99.90;;;;;;5093821;28;19920;-78
2023/08/06 07:00:58;;;;;;;4.38;3.50;;;15.90;99.90;;;;;;5077463;28;20040;-78
2023/08/06 07:03:24;;;;;;;3.28;2.97;;;16.10;99.90;;;;;;5078050;28;20155;-78
2023/08/06 07:05:50;;;;;;;3.03;2.72;;;16.20;99.90;;;;;;5093163;28;20050;-78
2023/08/06 07:08:17;;;;;;;2.60;2.40;;;16.10;99.90;;;;;;5077144;28;20101;-78
2023/08/06 07:10:42;;;;;;;;;;;16.20;99.90;;;;;;5087713;28;20369;-78
2023/08/06 07:13:09;;;;;;;2.53;2.33;;;16.30;99.90;;;;;;5075015;28;19924;-78
2023/08/06 07:15:34;;;;;;;2.40;2.20;;;16.40;99.90;;;;;;5074928;28;20186;-78
2023/08/06 07:18:00;;;;;;;;;;;16.30;99.90;;;;;;5075789;28;20044;-78
2023/08/06 07:20:29;;;;;;;2.47;2.28;;;16.40;99.90;;;;;;5056413;28;19924;-78
2023/08/06 07:22:54;;;;;;;2.58;2.38;;;16.50;99.90;;;;;;5067836;28;20399;-78
2023/08/06 07:25:20;;;;;;;;;;;16.50;99.90;;;;;;5070246;28;20036;-78
2023/08/06 07:27:46;;;;;;;3.00;2.70;;;16.60;99.90;;;;;;5054056;28;19978;-78
2023/08/06 07:30:12;;;;;;;2.95;2.65;;;16.70;99.90;;;;;;5070749;28;20406;-78
2023/08/06 07:32:37;;;;;;;;;;;16.70;99.90;;;;;;5069849;28;20040;-78
2023/08/06 07:35:04;;;;;;;2.80;2.30;;;16.90;99.90;;;;;;5071572;28;19926;-76
2023/08/06 07:37:30;;;;;;;3.13;2.83;;;16.90;99.90;;;;;;5032127;28;20041;-77
2023/08/06 07:39:55;;;;;;;;;;;16.90;99.90;;;;;;5070415;28;21559;-77
2023/08/06 07:42:21;;;;;;;3.65;3.17;;;16.90;99.90;;;;;;5052956;28;19976;-77
2023/08/06 07:44:54;;;;;;;;;;;16.90;99.90;;;;;;5070625;28;20079;-77
2023/08/06 07:47:20;;;;;;;3.08;2.65;;;17.00;99.90;;;;;;5068192;28;19935;-78
2023/08/06 07:49:45;;;;;;;;;;;17.20;99.90;;;;;;5068872;28;20036;-78
2023/08/06 07:52:11;;;;;;;3.15;2.85;;;17.30;99.90;;;;;;5050901;28;19975;-78
2023/08/06 07:54:37;;;;;;;;;;;17.50;99.90;;;;;;5068377;28;20065;-78
2023/08/06 07:57:03;;;;;;;2.78;2.58;;;17.80;99.90;;;;;;5070046;28;19963;-78
2023/08/06 07:59:28;;;;;;;;;;;18.00;99.90;;;;;;5072441;28;20364;-78
2023/08/06 08:01:54;;;;;;;3.20;2.90;;;18.20;99.90;;;;;;5064964;28;19927;-78
2023/08/06 08:04:20;;;;;;;;;;;18.30;99.90;;;;;;5073587;28;20121;-78
2023/08/06 08:06:47;;;;;;;5.13;3.67;;;18.50;99.90;;;;;;5072248;28;19946;-78
2023/08/06 08:09:15;;;;;;;3.40;3.10;;;18.40;99.90;;;;;;5069076;28;20047;-77
2023/08/06 08:11:41;;;;;;;3.70;3.40;;;18.40;99.90;;;;;;5085009;28;20135;-77
2023/08/06 08:14:07;;;;;;;5.78;3.70;;;18.70;99.90;;;;;;5069089;28;20470;-78
2023/08/06 08:16:33;;;;;;;;;;;18.90;99.90;;;;;;5088048;28;20115;-77
2023/08/06 08:18:59;;;;;;;3.30;3.00;;;19.10;99.90;;;;;;5088356;28;19920;-77
2023/08/06 08:21:25;;;;;;;;;;;19.30;99.90;;;;;;5088505;28;20123;-77
2023/08/06 08:23:51;;;;;;;3.17;2.88;;;19.30;99.90;;;;;;5102391;28;19923;-78
2023/08/06 08:26:17;;;;;;;2.70;2.50;;;19.50;99.90;;;;;;5072336;28;20044;-78
2023/08/06 08:28:42;;;;;;;;;;;19.80;99.90;;;;;;5087810;28;20089;-77
2023/08/06 08:31:09;;;;;;;2.95;2.47;;;19.70;99.90;;;;;;5070440;28;19930;-78
2023/08/06 08:33:35;;;;;;;3.00;2.33;;;19.70;99.90;;;;;;5085555;28;20054;-77
2023/08/06 08:36:00;;;;;;;2.33;2.13;;;19.70;99.90;;;;;;5072844;28;20387;-77
2023/08/06 08:38:26;;;;;;;;;;;19.70;99.90;;;;;;5088691;28;20054;-77
2023/08/06 08:40:53;;;;;;;2.65;2.45;;;19.70;99.90;;;;;;5065580;28;19923;-77
2023/08/06 08:43:21;;;;;;;2.40;2.10;;;19.70;99.90;;;;;;5087605;28;20083;-78
2023/08/06 08:45:50;;;;;;;1.90;1.80;;;19.80;99.90;;;;;;5088079;28;20051;-77
2023/08/06 08:48:17;;;;;;;2.20;1.90;;;19.90;99.90;;;;;;5090293;28;20480;-77
2023/08/06 08:50:46;;;;;;;2.13;1.92;;;20.00;99.90;;;;;;5090759;28;20082;-78
2023/08/06 08:53:13;;;;;;;1.92;1.73;;;20.00;99.90;;;;;;5090132;28;20437;-78
2023/08/06 08:55:40;;;;;;;2.05;1.85;;;20.10;99.90;;;;;;5089821;28;20040;-77
2023/08/06 08:58:06;;;;;;;3.63;2.10;;;20.20;99.90;;;;;;5073679;28;20047;-77
2023/08/06 09:00:33;;;;;;;1.98;1.70;;;20.10;99.90;;;;;;5089815;28;20892;-77
2023/08/06 09:02:59;;;;;;;2.20;1.92;;;20.00;51.90;;;;;;5071496;28;20105;-77
2023/08/06 09:05:28;;;;;;;2.53;2.05;;;19.90;99.90;;;;;;5089298;28;20044;-77
2023/08/06 09:07:56;;;;;;;2.35;2.00;;;20.10;1.00;;;;;;5089478;28;20039;-77
2023/08/06 09:10:24;;;;;;;3.47;2.55;;;20.20;99.90;;;;;;5089041;28;20672;-77
2023/08/06 09:12:52;;;;;;;2.90;2.20;;;20.10;1.00;;;;;;5088932;28;20101;-77
2023/08/06 09:15:19;;;;;;;2.33;2.13;;;19.80;99.90;;;;;;5089729;28;20036;-77
2023/08/06 09:17:44;;;;;;;2.92;2.13;;;20.00;99.90;;;;;;5089244;28;20043;-77
2023/08/06 09:20:14;;;;;;;2.90;2.45;;;19.90;1.00;;;;;;5072917;28;20044;-78
2023/08/06 09:22:41;;;;;;;2.50;2.20;;;20.10;1.00;;;;;;5089811;28;20048;-79
2023/08/06 09:25:09;;;;;;;2.38;2.05;;;20.20;99.90;;;;;;5072758;28;20116;-78
2023/08/06 09:27:39;;;;;;;2.28;2.03;;;20.30;99.90;;;;;;5089775;28;20044;-78
2023/08/06 09:30:08;;;;;;;2.67;2.10;;;20.30;41.90;;;;;;5068956;28;20120;-78
2023/08/06 09:32:47;;;;;;;1.90;1.80;;;20.40;99.90;;;;;;5089676;28;20027;-78
2023/08/06 09:35:19;;;;;;;2.90;2.00;;;20.50;99.90;;;;;;5088930;28;20046;-78
2023/08/06 09:37:45;;;;;;;2.42;1.90;;;20.50;99.90;;;;;;5088340;28;20044;-78
2023/08/06 09:40:40;;;;;;;2.10;1.90;;;20.50;1.00;;;;;;5090262;28;20046;-78
2023/08/06 09:43:06;;;;;;;2.80;1.90;;;20.70;99.90;;;;;;5073489;28;20105;-79
2023/08/06 09:45:37;;;;;;;6.90;3.70;;;20.80;99.90;;;;;;5075675;28;20112;-81
2023/08/06 09:49:42;;;;;;;3.72;2.40;;;20.50;97.20;;;;;;5093303;27;2000503;-81
2023/08/06 09:52:15;;;;;;;2.65;2.05;;;20.50;1.00;;;;;;5116787;27;20034;-81
2023/08/06 09:54:43;;;;;;;3.55;2.15;;;20.60;99.90;;;;;;5117142;27;20076;-81
2023/08/06 09:57:11;;;;;;;2.33;2.00;;;20.80;14.80;;;;;;5115107;27;20039;-81
2023/08/06 09:59:40;;;;;;;2.00;1.80;;;20.70;1.00;;;;;;5123987;27;20105;-81
2023/08/06 10:02:13;;;;;;;2.17;1.80;;;20.80;99.90;;;;;;5140896;27;20038;-81
2023/08/06 10:04:39;;;;;;;1.90;1.70;;;21.00;96.60;;;;;;5134783;27;20443;-81
2023/08/06 10:07:05;;;;;;;2.03;1.60;;;21.10;1.00;;;;;;5099798;27;20091;-79
2023/08/06 10:09:31;;;;;;;2.00;1.70;;;21.10;12.50;;;;;;5137560;27;20038;-78
2023/08/06 10:11:59;;;;;;;3.17;1.70;;;21.40;99.90;;;;;;5137192;27;20046;-79
2023/08/06 10:14:30;;;;;;;2.20;1.73;;;21.30;62.70;;;;;;5128579;27;20046;-78
2023/08/06 10:16:58;;;;;;;2.00;1.70;;;21.30;13.80;;;;;;5123968;27;20043;-79
2023/08/06 10:19:25;;;;;;;2.03;1.83;;;21.40;99.90;;;;;;5134131;27;20115;-79
2023/08/06 10:22:14;;;;;;;3.25;1.70;;;21.40;99.90;;;;;;5127454;27;20040;-79
2023/08/06 10:24:49;;;;;;;2.55;2.05;;;21.50;99.90;;;;;;5120255;27;20111;-79
2023/08/06 10:27:22;;;;;;;1.85;1.70;;;21.30;99.90;;;;;;5111647;27;20031;-79
2023/08/06 10:29:49;;;;;;;2.28;1.92;;;21.30;99.90;;;;;;5117516;27;20713;-78
2023/08/06 10:32:15;;;;;;;2.40;1.85;;;21.40;99.90;;;;;;5131263;27;20055;-78
2023/08/06 10:35:00;;;;;;;1.80;1.50;;;21.40;99.90;;;;;;5136404;27;20034;-77
2023/08/06 10:37:36;;;;;;;2.08;1.83;;;21.30;41.10;;;;;;5124210;27;20390;-77
2023/08/06 10:40:03;;;;;;;2.22;2.03;;;21.30;1.00;;;;;;5116515;27;20038;-77
2023/08/06 10:42:29;;;;;;;2.80;2.00;;;21.10;1.00;;;;;;5128529;27;20139;-77
2023/08/06 10:45:18;;;;;;;1.98;1.63;;;20.90;14.80;;;;;;5110756;27;20081;-77
2023/08/06 10:47:45;;;;;;;1.95;1.73;;;20.90;99.90;;;;;;5126174;27;20534;-78
2023/08/06 10:50:16;;;;;;;2.53;2.10;;;20.60;1.00;;;;;;5092353;27;20047;-78
2023/08/06 10:52:43;;;;;;;1.70;1.60;;;20.70;99.90;;;;;;5127594;27;20035;-77
2023/08/06 10:55:10;;;;;;;2.10;1.70;;;20.80;99.90;;;;;;5133330;27;20580;-80
2023/08/06 10:57:36;;;;;;;2.25;1.92;;;20.70;99.90;;;;;;5119030;27;20035;-80
2023/08/06 11:00:06;;;;;;;2.05;1.85;;;20.60;1.00;;;;;;5109234;27;20034;-76
2023/08/06 11:02:36;;;;;;;1.70;1.60;;;20.50;99.90;;;;;;5115390;27;20126;-79
2023/08/06 11:05:09;;;;;;;2.35;1.50;;;20.60;99.90;;;;;;5113916;27;20046;-79
2023/08/06 11:07:35;;;;;;;2.10;1.60;;;20.60;99.90;;;;;;5103720;27;20522;-78
2023/08/06 11:10:06;;;;;;;2.15;1.60;;;20.50;53.70;;;;;;5114663;27;20039;-80
2023/08/06 11:12:33;;;;;;;2.38;1.70;;;20.40;99.90;;;;;;5119052;27;20058;-79
2023/08/06 11:15:00;;;;;;;2.35;1.83;;;20.60;1.00;;;;;;5124189;27;20043;-79
2023/08/06 11:17:27;;;;;;;1.90;1.70;;;20.50;1.00;;;;;;5102346;27;20043;-80
2023/08/06 11:19:54;;;;;;;1.40;1.30;;;20.60;99.90;;;;;;5123470;27;20038;-78
2023/08/06 11:22:21;;;;;;;2.45;1.52;;;20.70;99.90;;;;;;5112265;27;20091;-80
2023/08/06 11:24:47;;;;;;;1.63;1.45;;;20.60;97.70;;;;;;5113115;27;20539;-82
2023/08/06 11:27:14;;;;;;;1.83;1.52;;;20.70;1.00;;;;;;5113845;27;20131;-81
2023/08/06 11:29:41;;;;;;;1.90;1.52;;;20.70;4.90;;;;;;5102456;27;20054;-79
2023/08/06 11:32:08;;;;;;;3.35;2.05;;;20.80;55.00;;;;;;5113445;27;20045;-77
2023/08/06 11:34:35;;;;;;;1.90;1.55;;;21.10;6.40;;;;;;5111890;27;20046;-77
2023/08/06 11:37:03;;;;;;;2.40;1.80;;;21.10;63.90;;;;;;5104459;27;20586;-80
2023/08/06 11:39:29;;;;;;;1.90;1.70;;;21.40;1.00;;;;;;5096294;27;20525;-80
2023/08/06 11:41:54;;;;;;;2.00;1.60;;;21.60;1.00;;;;;;5117553;27;20035;-80
2023/08/06 11:44:22;;;;;;;2.10;1.83;;;21.80;1.00;;;;;;5101743;27;20037;-80
2023/08/06 11:46:56;;;;;;;2.05;1.80;;;22.10;1.00;;;;;;5097205;27;20031;-81
2023/08/06 11:49:47;;;;;;;2.00;1.70;;;22.40;1.00;;;;;;5117966;27;20196;-81
2023/08/06 11:52:20;;;;;;;2.58;1.60;;;22.80;1.00;;;;;;5120036;27;20111;-81
2023/08/06 11:55:09;;;;;;;2.15;1.80;;;22.80;99.90;;;;;;5103481;27;20520;-81
2023/08/06 11:57:36;;;;;;;1.67;1.52;;;22.40;99.90;;;;;;5116954;27;20038;-80
2023/08/06 12:00:13;;;;;;;1.60;1.50;;;22.40;1.00;;;;;;5114427;27;20482;-81
2023/08/06 12:02:44;;;;;;;2.28;1.70;;;22.40;99.90;;;;;;5099591;27;20039;-80
2023/08/06 12:05:11;;;;;;;1.73;1.60;;;22.30;1.00;;;;;;5101315;27;20366;-80
2023/08/06 12:07:41;;;;;;;2.15;1.50;;;22.00;1.00;;;;;;5100336;27;20398;-80
2023/08/06 12:10:08;;;;;;;1.83;1.40;;;21.70;1.00;;;;;;5114459;27;20343;-80
2023/08/06 12:12:34;;;;;;;1.83;1.65;;;21.90;99.90;;;;;;5092289;27;20114;-80
2023/08/06 12:15:01;;;;;;;1.98;1.75;;;22.00;1.00;;;;;;5099773;27;20416;-80
2023/08/06 12:17:26;;;;;;;2.42;1.80;;;21.60;1.00;;;;;;5100382;27;20095;-86
2023/08/06 12:19:52;;;;;;;2.42;1.60;;;21.60;99.90;;;;;;5091571;27;20067;-77
2023/08/06 12:22:18;;;;;;;2.20;1.70;;;21.40;45.80;;;;;;5113385;27;20084;-77
2023/08/06 12:24:45;;;;;;;2.35;1.60;;;21.30;99.90;;;;;;5099791;27;20046;-76
2023/08/06 12:27:11;;;;;;;2.13;1.92;;;21.40;1.00;;;;;;5115982;27;20479;-77
2023/08/06 12:29:41;;;;;;;2.10;1.70;;;21.60;99.90;;;;;;5114694;27;20063;-77
2023/08/06 12:32:07;;;;;;;1.85;1.70;;;21.50;99.90;;;;;;5119018;27;20039;-77
2023/08/06 12:34:32;;;;;;;1.90;1.48;;;21.50;99.90;;;;;;5099940;27;20050;-77
2023/08/06 12:36:58;;;;;;;2.42;1.60;;;21.30;99.90;;;;;;5097000;27;20034;-79
2023/08/06 12:39:24;;;;;;;2.55;1.60;;;21.30;36.40;;;;;;5085303;27;20390;-79
2023/08/06 12:41:50;;;;;;;2.00;1.50;;;21.10;81.10;;;;;;5110918;27;20097;-79
2023/08/06 12:44:15;;;;;;;2.40;1.50;;;21.20;99.90;;;;;;5098131;27;20074;-79
2023/08/06 12:46:41;;;;;;;1.60;1.50;;;21.30;99.90;;;;;;5086124;27;20047;-79
2023/08/06 12:49:07;;;;;;;2.33;1.70;;;21.40;99.90;;;;;;5087732;27;20047;-80
2023/08/06 12:51:33;;;;;;;1.73;1.60;;;21.30;99.90;;;;;;5082269;27;20042;-79
2023/08/06 12:53:59;;;;;;;2.60;1.60;;;21.30;1.00;;;;;;5115838;27;20047;-80